sensor_id;sensor_type;location;lat;lon;timestamp;pressure;altitude;pressure_sealevel;temperature;humidity
39949;BME280;29070;48.102;-1.652;2023-07-20T00:04:59;101605.34;;;17.75;59.80
39949;BME280;29070;48.102;-1.652;2023-07-20T00:09:59;101606.47;;;17.67;59.92
39949;BME280;29070;48.102;-1.652;2023-07-20T00:14:59;101601.81;;;17.63;59.98
39949;BME280;29070;48.102;-1.652;2023-07-20T00:19:59;101600.63;;;17.59;60.28
39949;BME280;29070;48.102;-1.652;2023-07-20T00:25:00;101598.25;;;17.50;60.79
39949;BME280;29070;48.102;-1.652;2023-07-20T00:30:00;101600.75;;;17.45;61.03
39949;BME280;29070;48.102;-1.652;2023-07-20T00:35:01;101602.81;;;17.43;61.08
39949;BME280;29070;48.102;-1.652;2023-07-20T00:40:01;101596.13;;;17.41;61.51
39949;BME280;29070;48.102;-1.652;2023-07-20T00:45:05;101594.47;;;17.40;61.84
39949;BME280;29070;48.102;-1.652;2023-07-20T00:50:06;101591.03;;;17.39;62.15
39949;BME280;29070;48.102;-1.652;2023-07-20T00:55:07;101581.78;;;17.42;62.40
39949;BME280;29070;48.102;-1.652;2023-07-20T01:00:09;101570.97;;;17.43;62.87
39949;BME280;29070;48.102;-1.652;2023-07-20T01:05:10;101568.09;;;17.45;62.91
39949;BME280;29070;48.102;-1.652;2023-07-20T01:15:18;101558.00;;;17.35;63.37
39949;BME280;29070;48.102;-1.652;2023-07-20T01:20:20;101546.19;;;17.31;63.66
39949;BME280;29070;48.102;-1.652;2023-07-20T01:35:42;101541.00;;;17.18;63.72
39949;BME280;29070;48.102;-1.652;2023-07-20T01:40:44;101532.09;;;17.12;63.96
39949;BME280;29070;48.102;-1.652;2023-07-20T01:45:45;101532.75;;;17.07;64.28
39949;BME280;29070;48.102;-1.652;2023-07-20T01:50:45;101525.22;;;17.04;64.13
39949;BME280;29070;48.102;-1.652;2023-07-20T01:55:45;101533.63;;;17.01;64.20
39949;BME280;29070;48.102;-1.652;2023-07-20T02:00:46;101531.41;;;16.98;64.39
39949;BME280;29070;48.102;-1.652;2023-07-20T02:05:46;101541.63;;;16.94;64.39
39949;BME280;29070;48.102;-1.652;2023-07-20T02:10:48;101527.81;;;16.86;64.76
39949;BME280;29070;48.102;-1.652;2023-07-20T02:15:48;101529.88;;;16.84;64.76
39949;BME280;29070;48.102;-1.652;2023-07-20T02:20:49;101529.53;;;16.73;65.04
39949;BME280;29070;48.102;-1.652;2023-07-20T02:25:49;101524.50;;;16.65;65.51
39949;BME280;29070;48.102;-1.652;2023-07-20T02:30:50;101520.25;;;16.57;65.49
39949;BME280;29070;48.102;-1.652;2023-07-20T02:35:50;101506.84;;;16.52;65.67
39949;BME280;29070;48.102;-1.652;2023-07-20T02:40:51;101507.06;;;16.51;65.85
39949;BME280;29070;48.102;-1.652;2023-07-20T02:45:53;101509.94;;;16.49;66.19
39949;BME280;29070;48.102;-1.652;2023-07-20T02:50:53;101512.00;;;16.47;66.13
39949;BME280;29070;48.102;-1.652;2023-07-20T02:55:53;101502.44;;;16.39;66.33
39949;BME280;29070;48.102;-1.652;2023-07-20T03:00:55;101501.25;;;16.35;66.35
39949;BME280;29070;48.102;-1.652;2023-07-20T03:05:55;101505.97;;;16.33;66.45
39949;BME280;29070;48.102;-1.652;2023-07-20T03:10:57;101501.69;;;16.32;66.71
39949;BME280;29070;48.102;-1.652;2023-07-20T03:15:57;101493.56;;;16.27;66.94
39949;BME280;29070;48.102;-1.652;2023-07-20T03:20:58;101484.59;;;16.28;66.89
39949;BME280;29070;48.102;-1.652;2023-07-20T03:25:58;101486.06;;;16.24;66.72
39949;BME280;29070;48.102;-1.652;2023-07-20T03:30:58;101476.06;;;16.26;66.99
39949;BME280;29070;48.102;-1.652;2023-07-20T03:35:59;101479.94;;;16.24;67.12
39949;BME280;29070;48.102;-1.652;2023-07-20T03:41:00;101479.75;;;16.18;67.01
39949;BME280;29070;48.102;-1.652;2023-07-20T03:46:00;101488.34;;;16.14;67.47
39949;BME280;29070;48.102;-1.652;2023-07-20T03:51:01;101491.44;;;16.04;67.66
39949;BME280;29070;48.102;-1.652;2023-07-20T03:56:01;101493.09;;;15.98;67.74
39949;BME280;29070;48.102;-1.652;2023-07-20T04:01:02;101492.13;;;15.93;67.90
39949;BME280;29070;48.102;-1.652;2023-07-20T04:06:02;101498.22;;;15.93;68.00
39949;BME280;29070;48.102;-1.652;2023-07-20T04:11:03;101504.59;;;15.86;68.13
39949;BME280;29070;48.102;-1.652;2023-07-20T04:16:03;101500.09;;;15.86;68.22
39949;BME280;29070;48.102;-1.652;2023-07-20T04:21:03;101506.25;;;15.80;68.54
39949;BME280;29070;48.102;-1.652;2023-07-20T04:26:04;101495.06;;;15.78;68.45
39949;BME280;29070;48.102;-1.652;2023-07-20T04:31:13;101488.13;;;15.77;69.04
39949;BME280;29070;48.102;-1.652;2023-07-20T04:36:14;101497.28;;;15.81;68.69
39949;BME280;29070;48.102;-1.652;2023-07-20T04:41:19;101497.09;;;15.76;68.85
39949;BME280;29070;48.102;-1.652;2023-07-20T04:46:20;101486.06;;;15.79;68.72
39949;BME280;29070;48.102;-1.652;2023-07-20T04:51:21;101488.31;;;15.82;68.71
39949;BME280;29070;48.102;-1.652;2023-07-20T04:56:22;101480.56;;;15.80;68.98
39949;BME280;29070;48.102;-1.652;2023-07-20T05:01:25;101479.56;;;15.81;69.19
39949;BME280;29070;48.102;-1.652;2023-07-20T05:06:26;101474.25;;;15.88;69.28
39949;BME280;29070;48.102;-1.652;2023-07-20T05:11:27;101478.69;;;15.94;69.52
39949;BME280;29070;48.102;-1.652;2023-07-20T05:16:27;101484.75;;;16.01;69.15
39949;BME280;29070;48.102;-1.652;2023-07-20T05:21:27;101477.00;;;16.07;69.16
39949;BME280;29070;48.102;-1.652;2023-07-20T05:26:28;101479.81;;;16.12;68.97
39949;BME280;29070;48.102;-1.652;2023-07-20T05:31:28;101475.28;;;16.19;69.11
39949;BME280;29070;48.102;-1.652;2023-07-20T05:36:30;101480.13;;;16.22;69.12
39949;BME280;29070;48.102;-1.652;2023-07-20T05:41:31;101479.09;;;16.30;69.30
39949;BME280;29070;48.102;-1.652;2023-07-20T05:46:31;101475.94;;;16.39;68.96
39949;BME280;29070;48.102;-1.652;2023-07-20T05:51:31;101479.53;;;16.52;69.03
39949;BME280;29070;48.102;-1.652;2023-07-20T05:56:32;101472.50;;;16.64;68.93
39949;BME280;29070;48.102;-1.652;2023-07-20T06:01:32;101484.63;;;16.78;69.16
39949;BME280;29070;48.102;-1.652;2023-07-20T06:06:33;101469.66;;;16.91;68.74
39949;BME280;29070;48.102;-1.652;2023-07-20T06:11:33;101462.91;;;17.13;69.12
39949;BME280;29070;48.102;-1.652;2023-07-20T06:16:33;101471.78;;;17.56;69.00
39949;BME280;29070;48.102;-1.652;2023-07-20T06:21:34;101473.63;;;17.93;68.53
39949;BME280;29070;48.102;-1.652;2023-07-20T06:26:34;101473.13;;;18.14;67.96
39949;BME280;29070;48.102;-1.652;2023-07-20T06:31:41;101479.81;;;18.17;67.95
39949;BME280;29070;48.102;-1.652;2023-07-20T06:36:41;101473.84;;;18.33;67.83
39949;BME280;29070;48.102;-1.652;2023-07-20T06:41:42;101477.47;;;18.39;67.89
39949;BME280;29070;48.102;-1.652;2023-07-20T06:46:42;101479.19;;;18.45;67.73
39949;BME280;29070;48.102;-1.652;2023-07-20T06:51:42;101466.63;;;18.64;67.36
39949;BME280;29070;48.102;-1.652;2023-07-20T06:56:43;101471.72;;;19.13;66.76
39949;BME280;29070;48.102;-1.652;2023-07-20T07:01:43;101473.00;;;20.88;63.83
39949;BME280;29070;48.102;-1.652;2023-07-20T07:06:44;101463.56;;;20.46;64.00
39949;BME280;29070;48.102;-1.652;2023-07-20T07:11:44;101452.69;;;20.02;65.16
39949;BME280;29070;48.102;-1.652;2023-07-20T07:16:45;101462.22;;;19.98;65.17
39949;BME280;29070;48.102;-1.652;2023-07-20T07:21:46;101461.63;;;19.96;65.17
39949;BME280;29070;48.102;-1.652;2023-07-20T07:26:46;101458.16;;;19.95;65.24
39949;BME280;29070;48.102;-1.652;2023-07-20T07:31:47;101470.22;;;19.98;64.70
39949;BME280;29070;48.102;-1.652;2023-07-20T07:36:47;101460.78;;;20.07;64.82
39949;BME280;29070;48.102;-1.652;2023-07-20T07:41:47;101456.25;;;20.08;64.09
39949;BME280;29070;48.102;-1.652;2023-07-20T07:46:48;101460.59;;;19.97;64.70
39949;BME280;29070;48.102;-1.652;2023-07-20T07:51:49;101459.94;;;19.90;64.52
39949;BME280;29070;48.102;-1.652;2023-07-20T07:56:49;101457.56;;;20.05;64.53
39949;BME280;29070;48.102;-1.652;2023-07-20T08:01:51;101461.16;;;19.99;64.47
39949;BME280;29070;48.102;-1.652;2023-07-20T08:06:51;101459.31;;;19.99;64.46
39949;BME280;29070;48.102;-1.652;2023-07-20T08:11:52;101453.03;;;20.23;64.42
39949;BME280;29070;48.102;-1.652;2023-07-20T08:16:52;101452.56;;;20.43;64.07
39949;BME280;29070;48.102;-1.652;2023-07-20T08:21:53;101451.63;;;20.66;63.65
39949;BME280;29070;48.102;-1.652;2023-07-20T08:26:53;101463.56;;;20.80;63.30
39949;BME280;29070;48.102;-1.652;2023-07-20T08:31:53;101465.22;;;21.25;62.58
39949;BME280;29070;48.102;-1.652;2023-07-20T08:36:54;101464.75;;;21.78;61.83
39949;BME280;29070;48.102;-1.652;2023-07-20T08:41:55;101452.28;;;22.16;61.09
39949;BME280;29070;48.102;-1.652;2023-07-20T08:46:57;101447.00;;;22.58;60.96
39949;BME280;29070;48.102;-1.652;2023-07-20T08:51:59;101447.53;;;23.03;60.19
39949;BME280;29070;48.102;-1.652;2023-07-20T08:57:04;101440.69;;;23.22;58.83
39949;BME280;29070;48.102;-1.652;2023-07-20T09:02:05;101447.53;;;23.03;58.75
39949;BME280;29070;48.102;-1.652;2023-07-20T09:07:07;101449.09;;;22.94;58.35
39949;BME280;29070;48.102;-1.652;2023-07-20T09:12:15;101440.53;;;22.92;57.41
39949;BME280;29070;48.102;-1.652;2023-07-20T09:17:16;101440.34;;;23.09;58.06
39949;BME280;29070;48.102;-1.652;2023-07-20T09:22:16;101439.63;;;23.24;57.30
39949;BME280;29070;48.102;-1.652;2023-07-20T09:27:17;101438.06;;;23.48;57.13
39949;BME280;29070;48.102;-1.652;2023-07-20T09:32:21;101433.56;;;23.64;55.78
39949;BME280;29070;48.102;-1.652;2023-07-20T09:37:22;101429.09;;;23.95;55.82
39949;BME280;29070;48.102;-1.652;2023-07-20T09:42:23;101433.38;;;24.32;55.50
39949;BME280;29070;48.102;-1.652;2023-07-20T09:47:25;101429.63;;;24.13;55.09
39949;BME280;29070;48.102;-1.652;2023-07-20T09:52:27;101426.91;;;24.18;54.97
39949;BME280;29070;48.102;-1.652;2023-07-20T09:57:27;101418.06;;;24.12;54.03
39949;BME280;29070;48.102;-1.652;2023-07-20T10:02:33;101417.75;;;24.50;52.42
39949;BME280;29070;48.102;-1.652;2023-07-20T10:07:35;101433.66;;;25.22;52.02
39949;BME280;29070;48.102;-1.652;2023-07-20T10:12:39;101423.44;;;25.74;51.39
39949;BME280;29070;48.102;-1.652;2023-07-20T10:17:53;101410.38;;;26.25;49.05
39949;BME280;29070;48.102;-1.652;2023-07-20T10:22:56;101409.44;;;26.40;49.80
39949;BME280;29070;48.102;-1.652;2023-07-20T10:27:57;101427.09;;;27.24;48.85
39949;BME280;29070;48.102;-1.652;2023-07-20T10:32:59;101407.06;;;27.30;47.37
39949;BME280;29070;48.102;-1.652;2023-07-20T10:38:03;101398.94;;;26.92;47.74
39949;BME280;29070;48.102;-1.652;2023-07-20T10:43:08;101385.00;;;26.61;46.01
39949;BME280;29070;48.102;-1.652;2023-07-20T10:48:16;101383.97;;;26.33;46.72
39949;BME280;29070;48.102;-1.652;2023-07-20T10:53:18;101385.91;;;26.51;46.61
39949;BME280;29070;48.102;-1.652;2023-07-20T10:58:18;101374.13;;;26.95;46.62
39949;BME280;29070;48.102;-1.652;2023-07-20T11:03:31;101356.41;;;27.79;42.37
39949;BME280;29070;48.102;-1.652;2023-07-20T11:08:42;101346.69;;;27.97;42.88
39949;BME280;29070;48.102;-1.652;2023-07-20T11:13:54;101342.44;;;28.38;41.13
39949;BME280;29070;48.102;-1.652;2023-07-20T11:18:55;101345.47;;;29.00;43.00
39949;BME280;29070;48.102;-1.652;2023-07-20T11:23:56;101346.03;;;28.75;42.60
39949;BME280;29070;48.102;-1.652;2023-07-20T11:28:58;101334.63;;;28.78;41.84
39949;BME280;29070;48.102;-1.652;2023-07-20T11:33:58;101338.88;;;29.06;41.42
39949;BME280;29070;48.102;-1.652;2023-07-20T11:38:59;101323.84;;;29.59;40.93
39949;BME280;29070;48.102;-1.652;2023-07-20T11:44:00;101327.16;;;29.56;40.52
39949;BME280;29070;48.102;-1.652;2023-07-20T11:49:01;101315.06;;;29.54;39.74
39949;BME280;29070;48.102;-1.652;2023-07-20T11:54:02;101296.13;;;29.76;39.40
39949;BME280;29070;48.102;-1.652;2023-07-20T11:59:02;101298.28;;;29.74;38.61
39949;BME280;29070;48.102;-1.652;2023-07-20T12:04:04;101292.69;;;29.71;38.74
39949;BME280;29070;48.102;-1.652;2023-07-20T12:09:05;101284.72;;;29.65;38.04
39949;BME280;29070;48.102;-1.652;2023-07-20T12:14:08;101278.44;;;28.88;37.51
39949;BME280;29070;48.102;-1.652;2023-07-20T12:19:11;101272.06;;;27.92;39.37
39949;BME280;29070;48.102;-1.652;2023-07-20T12:24:12;101278.81;;;28.73;38.24
39949;BME280;29070;48.102;-1.652;2023-07-20T12:29:12;101274.94;;;28.88;37.89
39949;BME280;29070;48.102;-1.652;2023-07-20T12:34:13;101269.75;;;28.55;37.48
39949;BME280;29070;48.102;-1.652;2023-07-20T12:39:13;101267.66;;;28.10;37.97
39949;BME280;29070;48.102;-1.652;2023-07-20T12:44:13;101264.09;;;27.82;38.25
39949;BME280;29070;48.102;-1.652;2023-07-20T12:49:14;101255.69;;;27.70;38.03
39949;BME280;29070;48.102;-1.652;2023-07-20T12:54:15;101265.59;;;27.74;38.24
39949;BME280;29070;48.102;-1.652;2023-07-20T12:59:15;101265.34;;;28.18;38.11
39949;BME280;29070;48.102;-1.652;2023-07-20T13:04:15;101249.75;;;28.42;37.92
39949;BME280;29070;48.102;-1.652;2023-07-20T13:09:16;101255.72;;;28.39;37.92
39949;BME280;29070;48.102;-1.652;2023-07-20T13:14:16;101247.91;;;28.51;36.95
39949;BME280;29070;48.102;-1.652;2023-07-20T13:19:16;101242.84;;;28.22;37.39
39949;BME280;29070;48.102;-1.652;2023-07-20T13:24:17;101243.38;;;28.24;37.43
39949;BME280;29070;48.102;-1.652;2023-07-20T13:29:17;101242.44;;;28.57;37.17
39949;BME280;29070;48.102;-1.652;2023-07-20T13:34:18;101232.38;;;28.21;36.73
39949;BME280;29070;48.102;-1.652;2023-07-20T13:39:19;101235.53;;;28.37;36.65
39949;BME280;29070;48.102;-1.652;2023-07-20T13:44:20;101227.22;;;28.47;36.64
39949;BME280;29070;48.102;-1.652;2023-07-20T13:49:23;101217.63;;;28.41;36.77
39949;BME280;29070;48.102;-1.652;2023-07-20T13:54:24;101218.09;;;28.06;36.93
39949;BME280;29070;48.102;-1.652;2023-07-20T13:59:24;101218.75;;;28.26;37.06
39949;BME280;29070;48.102;-1.652;2023-07-20T14:04:25;101202.13;;;28.46;36.73
39949;BME280;29070;48.102;-1.652;2023-07-20T14:09:25;101205.31;;;28.48;36.33
39949;BME280;29070;48.102;-1.652;2023-07-20T14:14:26;101204.56;;;28.20;36.91
39949;BME280;29070;48.102;-1.652;2023-07-20T14:19:26;101202.75;;;27.60;37.93
39949;BME280;29070;48.102;-1.652;2023-07-20T14:24:26;101214.91;;;27.11;39.17
39949;BME280;29070;48.102;-1.652;2023-07-20T14:29:27;101205.31;;;26.86;39.69
39949;BME280;29070;48.102;-1.652;2023-07-20T14:34:31;101210.72;;;26.86;40.13
39949;BME280;29070;48.102;-1.652;2023-07-20T14:39:31;101210.34;;;26.92;39.90
39949;BME280;29070;48.102;-1.652;2023-07-20T14:44:33;101205.03;;;26.87;40.13
39949;BME280;29070;48.102;-1.652;2023-07-20T14:49:33;101219.50;;;26.53;40.69
39949;BME280;29070;48.102;-1.652;2023-07-20T14:54:33;101217.44;;;26.45;41.17
39949;BME280;29070;48.102;-1.652;2023-07-20T14:59:34;101209.06;;;26.71;40.87
39949;BME280;29070;48.102;-1.652;2023-07-20T15:04:34;101220.38;;;27.06;40.94
39949;BME280;29070;48.102;-1.652;2023-07-20T15:09:34;101219.78;;;27.09;40.46
39949;BME280;29070;48.102;-1.652;2023-07-20T15:14:35;101220.97;;;26.65;41.34
39949;BME280;29070;48.102;-1.652;2023-07-20T15:19:35;101216.22;;;26.37;41.65
39949;BME280;29070;48.102;-1.652;2023-07-20T15:24:36;101228.66;;;26.09;41.88
39949;BME280;29070;48.102;-1.652;2023-07-20T15:29:36;101221.47;;;26.04;42.01
39949;BME280;29070;48.102;-1.652;2023-07-20T15:34:36;101211.31;;;26.20;42.14
39949;BME280;29070;48.102;-1.652;2023-07-20T15:39:37;101214.06;;;26.15;42.14
39949;BME280;29070;48.102;-1.652;2023-07-20T15:44:37;101208.94;;;25.90;42.65
39949;BME280;29070;48.102;-1.652;2023-07-20T15:49:38;101202.50;;;25.91;42.65
39949;BME280;29070;48.102;-1.652;2023-07-20T15:54:39;101197.09;;;25.66;42.74
39949;BME280;29070;48.102;-1.652;2023-07-20T15:59:40;101200.22;;;25.20;43.34
39949;BME280;29070;48.102;-1.652;2023-07-20T16:04:40;101194.81;;;25.55;43.31
39949;BME280;29070;48.102;-1.652;2023-07-20T16:09:41;101190.97;;;25.61;43.44
39949;BME280;29070;48.102;-1.652;2023-07-20T16:14:41;101187.94;;;25.43;43.61
39949;BME280;29070;48.102;-1.652;2023-07-20T16:19:42;101183.25;;;25.25;43.83
39949;BME280;29070;48.102;-1.652;2023-07-20T16:24:42;101188.69;;;25.15;44.17
39949;BME280;29070;48.102;-1.652;2023-07-20T16:29:43;101189.84;;;25.03;44.07
39949;BME280;29070;48.102;-1.652;2023-07-20T16:34:43;101189.94;;;24.93;44.39
39949;BME280;29070;48.102;-1.652;2023-07-20T16:39:43;101180.59;;;24.85;43.97
39949;BME280;29070;48.102;-1.652;2023-07-20T16:44:49;101179.19;;;24.48;45.16
39949;BME280;29070;48.102;-1.652;2023-07-20T16:49:49;101183.84;;;24.32;45.16
39949;BME280;29070;48.102;-1.652;2023-07-20T16:54:50;101179.22;;;24.43;45.12
39949;BME280;29070;48.102;-1.652;2023-07-20T16:59:50;101194.59;;;24.27;45.11
39949;BME280;29070;48.102;-1.652;2023-07-20T17:04:50;101186.56;;;24.22;45.48
39949;BME280;29070;48.102;-1.652;2023-07-20T17:09:51;101180.19;;;24.08;45.68
39949;BME280;29070;48.102;-1.652;2023-07-20T17:14:51;101179.69;;;24.01;45.93
39949;BME280;29070;48.102;-1.652;2023-07-20T17:19:51;101181.88;;;23.88;46.01
39949;BME280;29070;48.102;-1.652;2023-07-20T17:24:52;101191.28;;;23.70;46.16
39949;BME280;29070;48.102;-1.652;2023-07-20T17:29:52;101186.72;;;23.60;46.39
39949;BME280;29070;48.102;-1.652;2023-07-20T17:34:53;101179.78;;;23.39;46.86
39949;BME280;29070;48.102;-1.652;2023-07-20T17:39:55;101192.91;;;23.30;46.68
39949;BME280;29070;48.102;-1.652;2023-07-20T17:44:55;101199.38;;;23.34;46.79
39949;BME280;29070;48.102;-1.652;2023-07-20T17:49:56;101187.84;;;23.34;47.07
39949;BME280;29070;48.102;-1.652;2023-07-20T17:54:57;101197.47;;;23.30;47.02
39949;BME280;29070;48.102;-1.652;2023-07-20T17:59:59;101195.63;;;23.05;47.29
39949;BME280;29070;48.102;-1.652;2023-07-20T18:04:59;101190.22;;;22.94;47.31
39949;BME280;29070;48.102;-1.652;2023-07-20T18:10:02;101187.53;;;22.84;47.58
39949;BME280;29070;48.102;-1.652;2023-07-20T18:15:04;101199.53;;;22.71;47.59
39949;BME280;29070;48.102;-1.652;2023-07-20T18:20:06;101200.53;;;22.44;47.94
39949;BME280;29070;48.102;-1.652;2023-07-20T18:25:07;101198.94;;;22.38;47.84
39949;BME280;29070;48.102;-1.652;2023-07-20T18:30:07;101204.47;;;22.21;48.41
39949;BME280;29070;48.102;-1.652;2023-07-20T18:35:08;101214.31;;;22.11;48.95
39949;BME280;29070;48.102;-1.652;2023-07-20T18:40:09;101221.44;;;21.95;48.82
39949;BME280;29070;48.102;-1.652;2023-07-20T18:45:09;101224.31;;;21.83;48.52
39949;BME280;29070;48.102;-1.652;2023-07-20T18:50:10;101226.94;;;21.78;48.73
39949;BME280;29070;48.102;-1.652;2023-07-20T18:55:11;101235.91;;;21.61;49.00
39949;BME280;29070;48.102;-1.652;2023-07-20T19:00:12;101230.75;;;21.49;49.31
39949;BME280;29070;48.102;-1.652;2023-07-20T19:05:14;101242.75;;;21.47;49.12
39949;BME280;29070;48.102;-1.652;2023-07-20T19:10:14;101244.75;;;21.35;49.57
39949;BME280;29070;48.102;-1.652;2023-07-20T19:15:14;101252.00;;;21.12;49.66
39949;BME280;29070;48.102;-1.652;2023-07-20T19:20:15;101254.50;;;20.91;50.33
39949;BME280;29070;48.102;-1.652;2023-07-20T19:25:16;101258.13;;;20.80;50.31
39949;BME280;29070;48.102;-1.652;2023-07-20T19:30:16;101254.97;;;20.61;50.46
39949;BME280;29070;48.102;-1.652;2023-07-20T19:35:16;101262.41;;;20.42;51.20
39949;BME280;29070;48.102;-1.652;2023-07-20T19:40:17;101272.28;;;20.19;51.64
39949;BME280;29070;48.102;-1.652;2023-07-20T19:45:17;101271.25;;;20.04;52.00
39949;BME280;29070;48.102;-1.652;2023-07-20T19:50:18;101272.78;;;19.83;52.67
39949;BME280;29070;48.102;-1.652;2023-07-20T19:55:18;101268.94;;;19.73;53.15
39949;BME280;29070;48.102;-1.652;2023-07-20T20:00:19;101269.84;;;19.67;53.51
39949;BME280;29070;48.102;-1.652;2023-07-20T20:05:20;101270.50;;;19.57;54.00
39949;BME280;29070;48.102;-1.652;2023-07-20T20:10:21;101267.91;;;19.46;54.32
39949;BME280;29070;48.102;-1.652;2023-07-20T20:15:21;101263.78;;;19.38;54.69
39949;BME280;29070;48.102;-1.652;2023-07-20T20:20:22;101271.03;;;19.26;54.98
39949;BME280;29070;48.102;-1.652;2023-07-20T20:25:22;101269.00;;;19.16;55.51
39949;BME280;29070;48.102;-1.652;2023-07-20T20:30:23;101279.69;;;19.04;55.99
39949;BME280;29070;48.102;-1.652;2023-07-20T20:35:24;101273.59;;;18.92;56.64
39949;BME280;29070;48.102;-1.652;2023-07-20T20:40:24;101277.78;;;18.88;56.62
39949;BME280;29070;48.102;-1.652;2023-07-20T20:45:26;101297.94;;;18.83;56.88
39949;BME280;29070;48.102;-1.652;2023-07-20T20:50:27;101296.31;;;18.82;57.09
39949;BME280;29070;48.102;-1.652;2023-07-20T20:55:27;101305.09;;;18.83;57.28
39949;BME280;29070;48.102;-1.652;2023-07-20T21:00:28;101304.94;;;18.78;57.63
39949;BME280;29070;48.102;-1.652;2023-07-20T21:05:32;101310.06;;;18.67;57.86
39949;BME280;29070;48.102;-1.652;2023-07-20T21:10:33;101321.63;;;18.61;57.75
39949;BME280;29070;48.102;-1.652;2023-07-20T21:15:34;101312.19;;;18.42;58.30
39949;BME280;29070;48.102;-1.652;2023-07-20T21:20:35;101311.03;;;18.38;58.44
39949;BME280;29070;48.102;-1.652;2023-07-20T21:25:35;101306.19;;;18.35;58.34
39949;BME280;29070;48.102;-1.652;2023-07-20T21:30:36;101310.69;;;18.22;58.62
39949;BME280;29070;48.102;-1.652;2023-07-20T21:35:36;101307.34;;;18.15;58.73
39949;BME280;29070;48.102;-1.652;2023-07-20T21:40:37;101299.28;;;18.10;58.66
39949;BME280;29070;48.102;-1.652;2023-07-20T21:45:38;101308.03;;;17.99;58.62
39949;BME280;29070;48.102;-1.652;2023-07-20T21:50:51;101299.34;;;17.91;59.35
39949;BME280;29070;48.102;-1.652;2023-07-20T21:55:51;101307.81;;;17.88;58.96
39949;BME280;29070;48.102;-1.652;2023-07-20T22:00:52;101313.56;;;17.85;59.08
39949;BME280;29070;48.102;-1.652;2023-07-20T22:05:55;101314.78;;;17.83;59.21
39949;BME280;29070;48.102;-1.652;2023-07-20T22:10:56;101295.25;;;17.77;59.40
39949;BME280;29070;48.102;-1.652;2023-07-20T22:15:56;101300.44;;;17.72;59.77
39949;BME280;29070;48.102;-1.652;2023-07-20T22:20:57;101295.63;;;17.69;60.00
39949;BME280;29070;48.102;-1.652;2023-07-20T22:26:04;101288.44;;;17.69;60.24
39949;BME280;29070;48.102;-1.652;2023-07-20T22:31:04;101284.03;;;17.63;60.27
39949;BME280;29070;48.102;-1.652;2023-07-20T22:36:05;101278.38;;;17.60;60.49
39949;BME280;29070;48.102;-1.652;2023-07-20T22:41:05;101287.97;;;17.61;60.63
39949;BME280;29070;48.102;-1.652;2023-07-20T22:46:05;101287.63;;;17.57;60.97
39949;BME280;29070;48.102;-1.652;2023-07-20T22:51:06;101287.84;;;17.56;60.70
39949;BME280;29070;48.102;-1.652;2023-07-20T22:56:06;101293.59;;;17.52;60.85
39949;BME280;29070;48.102;-1.652;2023-07-20T23:01:09;101289.28;;;17.40;61.91
39949;BME280;29070;48.102;-1.652;2023-07-20T23:06:10;101288.56;;;17.32;61.83
39949;BME280;29070;48.102;-1.652;2023-07-20T23:11:10;101289.03;;;17.29;61.99
39949;BME280;29070;48.102;-1.652;2023-07-20T23:16:12;101292.81;;;17.22;62.52
39949;BME280;29070;48.102;-1.652;2023-07-20T23:21:12;101292.44;;;17.18;62.55
39949;BME280;29070;48.102;-1.652;2023-07-20T23:26:14;101286.66;;;17.09;63.04
39949;BME280;29070;48.102;-1.652;2023-07-20T23:31:15;101275.88;;;17.04;63.45
39949;BME280;29070;48.102;-1.652;2023-07-20T23:36:15;101280.47;;;16.97;63.93
39949;BME280;29070;48.102;-1.652;2023-07-20T23:41:16;101284.41;;;16.94;63.84
39949;BME280;29070;48.102;-1.652;2023-07-20T23:46:16;101280.94;;;16.94;64.21
39949;BME280;29070;48.102;-1.652;2023-07-20T23:51:22;101287.41;;;16.98;64.40
39949;BME280;29070;48.102;-1.652;2023-07-20T23:56:23;101294.56;;;16.98;64.38
